Time;durP1;ratioP1;P1;durP2;ratioP2;P2;SDS_P1;SDS_P2;PMS_P1;PMS_P2;Temp;Humidity;BMP_temperature;BMP_pressure;BME280_temperature;BME280_humidity;BME280_pressure;Samples;Min_cycle;Max_cycle;Signal;HPM_P1;HPM_P2
2023/07/28 00:01:42;;;;;;;14.82;8.52;;;;;;;;;;5040470;28;20052;-79
2023/07/28 00:04:09;;;;;;;12.82;7.82;;;;;;;;;;5044150;28;20044;-79
2023/07/28 00:06:36;;;;;;;14.77;8.15;;;;;;;;;;5043454;28;20129;-79
2023/07/28 00:09:02;;;;;;;14.38;9.02;;;;;;;;;;5044792;28;20048;-79
2023/07/28 00:11:28;;;;;;;15.45;9.05;;;;;;;;;;5045553;28;20098;-79
2023/07/28 00:13:54;;;;;;;17.42;10.07;;;;;;;;;;5052314;28;20041;-79
2023/07/28 00:16:20;;;;;;;17.10;10.68;;;;;;;;;;5050748;28;20041;-79
2023/07/28 00:18:46;;;;;;;19.20;11.13;;;;;;;;;;5041035;28;20395;-79
2023/07/28 00:21:12;;;;;;;24.23;11.50;;;;;;;;;;5043561;28;21323;-79
2023/07/28 00:23:38;;;;;;;18.55;11.20;;;;;;;;;;5044233;28;20811;-79
2023/07/28 00:26:04;;;;;;;17.85;10.38;;;;;;;;;;5046135;28;20040;-79
2023/07/28 00:28:31;;;;;;;19.13;11.27;;;;;;;;;;5041811;28;20033;-79
2023/07/28 00:30:57;;;;;;;19.15;10.50;;;;;;;;;;5045338;28;20037;-79
2023/07/28 00:33:23;;;;;;;17.98;10.32;;;;;;;;;;5055491;28;20049;-79
2023/07/28 00:35:49;;;;;;;23.83;10.73;;;;;;;;;;5054598;28;20048;-79
2023/07/28 00:38:15;;;;;;;17.33;10.73;;;;;;;;;;5047869;28;20407;-79
2023/07/28 00:40:41;;;;;;;22.38;11.20;;;;;;;;;;5048552;28;20093;-80
2023/07/28 00:43:07;;;;;;;19.23;10.80;;;;;;;;;;5044845;28;20044;-79
2023/07/28 00:45:34;;;;;;;20.83;10.40;;;;;;;;;;5045116;28;20581;-80
2023/07/28 00:48:01;;;;;;;16.58;10.35;;;;;;;;;;5040938;28;20100;-79
2023/07/28 00:50:27;;;;;;;19.70;10.20;;;;;;;;;;5041386;28;20041;-79
2023/07/28 00:52:55;;;;;;;15.10;9.60;;;;;;;;;;5048191;28;20052;-79
2023/07/28 00:55:21;;;;;;;20.58;11.70;;;;;;;;;;5059421;28;20444;-79
2023/07/28 00:57:47;;;;;;;19.30;11.00;;;;;;;;;;5052762;28;20041;-79
2023/07/28 01:00:13;;;;;;;19.85;9.98;;;;;;;;;;5046277;28;20475;-79
2023/07/28 01:02:40;;;;;;;24.00;12.23;;;;;;;;;;5023656;28;20045;-79
2023/07/28 01:05:06;;;;;;;20.27;12.60;;;;;;;;;;5041755;28;20503;-79
2023/07/28 01:07:41;;;;;;;21.60;12.23;;;;;;;;;;5042378;28;20479;-79
2023/07/28 01:10:09;;;;;;;20.50;12.32;;;;;;;;;;5043679;28;20384;-80
2023/07/28 01:12:35;;;;;;;19.02;12.63;;;;;;;;;;5046904;28;20041;-79
2023/07/28 01:15:01;;;;;;;22.23;14.00;;;;;;;;;;5040428;28;20064;-79
2023/07/28 01:17:27;;;;;;;26.30;14.18;;;;;;;;;;5039688;28;20041;-79
2023/07/28 01:19:53;;;;;;;26.20;13.98;;;;;;;;;;5047087;28;20403;-80
2023/07/28 01:22:19;;;;;;;22.88;13.93;;;;;;;;;;5048777;28;20067;-80
2023/07/28 01:25:06;;;;;;;23.67;13.80;;;;;;;;;;5048299;28;20051;-79
2023/07/28 01:27:32;;;;;;;29.23;15.20;;;;;;;;;;5042581;28;20029;-79
2023/07/28 01:29:59;;;;;;;27.00;15.13;;;;;;;;;;5045879;28;20037;-79
2023/07/28 01:32:25;;;;;;;21.67;12.27;;;;;;;;;;5041809;28;20040;-80
2023/07/28 01:34:51;;;;;;;17.98;11.68;;;;;;;;;;5041427;28;20045;-80
2023/07/28 01:37:17;;;;;;;22.55;12.98;;;;;;;;;;5049661;28;20044;-80
2023/07/28 01:39:43;;;;;;;21.92;13.02;;;;;;;;;;5059543;28;20046;-80
2023/07/28 01:42:09;;;;;;;19.58;12.02;;;;;;;;;;5059067;28;20041;-79
2023/07/28 01:44:35;;;;;;;22.02;13.15;;;;;;;;;;5057797;28;20075;-80
2023/07/28 01:47:02;;;;;;;28.17;14.43;;;;;;;;;;5059808;28;20049;-79
2023/07/28 01:49:28;;;;;;;23.17;13.38;;;;;;;;;;5058133;28;20041;-79
2023/07/28 01:51:54;;;;;;;24.83;13.90;;;;;;;;;;5062947;28;20432;-79
2023/07/28 01:54:20;;;;;;;22.35;14.00;;;;;;;;;;5063163;28;20446;-80
2023/07/28 01:56:46;;;;;;;26.70;14.95;;;;;;;;;;5045585;28;20055;-80
2023/07/28 01:59:13;;;;;;;25.63;14.05;;;;;;;;;;5075795;28;20043;-79
2023/07/28 02:01:40;;;;;;;25.23;14.35;;;;;;;;;;5056307;28;20059;-79
2023/07/28 02:04:06;;;;;;;23.27;14.50;;;;;;;;;;5072164;28;20040;-79
2023/07/28 02:06:32;;;;;;;26.55;14.00;;;;;;;;;;5065385;28;20045;-79
2023/07/28 02:08:58;;;;;;;23.23;14.38;;;;;;;;;;5047537;28;20046;-80
2023/07/28 02:11:24;;;;;;;23.67;14.70;;;;;;;;;;5044730;28;20483;-79
2023/07/28 02:13:50;;;;;;;23.27;15.20;;;;;;;;;;5045509;28;20060;-79
2023/07/28 02:16:16;;;;;;;28.30;16.05;;;;;;;;;;5044224;28;20044;-79
2023/07/28 02:18:42;;;;;;;26.95;16.20;;;;;;;;;;5047012;28;20040;-80
2023/07/28 02:21:09;;;;;;;26.08;17.15;;;;;;;;;;5047470;28;20397;-80
2023/07/28 02:23:35;;;;;;;27.63;17.33;;;;;;;;;;5044922;28;20061;-79
2023/07/28 02:26:01;;;;;;;29.95;17.50;;;;;;;;;;5047780;28;20052;-80
2023/07/28 02:28:27;;;;;;;28.02;17.85;;;;;;;;;;5049811;28;20043;-80
2023/07/28 02:30:53;;;;;;;25.38;17.35;;;;;;;;;;5051154;28;20111;-80
2023/07/28 02:33:19;;;;;;;29.77;18.38;;;;;;;;;;5054377;28;20136;-79
2023/07/28 02:35:46;;;;;;;27.95;17.80;;;;;;;;;;5049534;28;20138;-80
2023/07/28 02:38:12;;;;;;;29.92;18.95;;;;;;;;;;5051921;28;20041;-79
2023/07/28 02:40:38;;;;;;;23.88;17.02;;;;;;;;;;5047188;28;20392;-79
2023/07/28 02:43:04;;;;;;;32.38;18.33;;;;;;;;;;5030533;28;20041;-79
2023/07/28 02:45:30;;;;;;;26.90;17.40;;;;;;;;;;5049033;28;20055;-80
2023/07/28 02:47:56;;;;;;;31.50;18.10;;;;;;;;;;5048917;28;20084;-80
2023/07/28 02:50:23;;;;;;;28.77;18.08;;;;;;;;;;5048176;28;20045;-79
2023/07/28 02:52:49;;;;;;;27.58;16.38;;;;;;;;;;5046189;28;20115;-79
2023/07/28 02:55:15;;;;;;;31.15;18.17;;;;;;;;;;5049448;28;20041;-79
2023/07/28 02:57:41;;;;;;;29.70;17.67;;;;;;;;;;5030784;28;20056;-79
2023/07/28 03:00:10;;;;;;;32.70;19.00;;;;;;;;;;5045699;28;20049;-79
2023/07/28 03:02:36;;;;;;;35.47;20.17;;;;;;;;;;5044532;28;20080;-79
2023/07/28 03:05:02;;;;;;;34.17;19.60;;;;;;;;;;5046570;28;20049;-79
2023/07/28 03:07:28;;;;;;;31.58;19.02;;;;;;;;;;5048640;28;20052;-79
2023/07/28 03:09:54;;;;;;;28.80;18.10;;;;;;;;;;5052259;28;20045;-79
2023/07/28 03:12:20;;;;;;;24.30;16.30;;;;;;;;;;5058625;28;20065;-79
2023/07/28 03:14:46;;;;;;;26.58;18.13;;;;;;;;;;5057114;28;20041;-79
2023/07/28 03:17:12;;;;;;;23.92;17.83;;;;;;;;;;5053747;28;20041;-79
2023/07/28 03:19:38;;;;;;;28.23;17.88;;;;;;;;;;5054651;28;20052;-79
2023/07/28 03:22:05;;;;;;;31.27;19.83;;;;;;;;;;5051942;28;20052;-79
2023/07/28 03:24:31;;;;;;;25.77;18.15;;;;;;;;;;5046408;28;20048;-79
2023/07/28 03:26:57;;;;;;;36.67;20.70;;;;;;;;;;5064739;28;20044;-79
2023/07/28 03:29:23;;;;;;;32.20;20.88;;;;;;;;;;5072270;28;20181;-79
2023/07/28 03:31:49;;;;;;;31.20;20.17;;;;;;;;;;5059545;28;20041;-79
2023/07/28 03:34:15;;;;;;;28.98;18.77;;;;;;;;;;5059671;28;20056;-79
2023/07/28 03:36:41;;;;;;;27.80;18.50;;;;;;;;;;5073661;28;20375;-79
2023/07/28 03:39:07;;;;;;;32.88;20.00;;;;;;;;;;5069596;28;20041;-79
2023/07/28 03:41:33;;;;;;;32.60;19.73;;;;;;;;;;5066867;28;20043;-79
2023/07/28 03:43:59;;;;;;;31.05;19.35;;;;;;;;;;5061123;28;20059;-79
2023/07/28 03:46:25;;;;;;;30.48;20.00;;;;;;;;;;5051144;28;20157;-80
2023/07/28 03:48:51;;;;;;;28.70;18.67;;;;;;;;;;5051293;28;20414;-78
2023/07/28 03:51:18;;;;;;;27.67;19.23;;;;;;;;;;5070954;28;20044;-79
2023/07/28 03:53:44;;;;;;;28.88;18.70;;;;;;;;;;5061494;28;20124;-79
2023/07/28 03:56:10;;;;;;;29.95;19.77;;;;;;;;;;5066448;28;20046;-79
2023/07/28 03:58:36;;;;;;;28.70;19.23;;;;;;;;;;5060561;28;20091;-79
2023/07/28 04:01:02;;;;;;;29.00;18.88;;;;;;;;;;5055836;28;20104;-79
2023/07/28 04:03:28;;;;;;;31.45;19.08;;;;;;;;;;5051624;28;20163;-79
2023/07/28 04:05:54;;;;;;;32.00;19.17;;;;;;;;;;5047698;28;20119;-80
2023/07/28 04:08:20;;;;;;;32.92;18.45;;;;;;;;;;5056298;28;20061;-79
2023/07/28 04:10:46;;;;;;;31.98;19.30;;;;;;;;;;5052509;28;20448;-79
2023/07/28 04:13:13;;;;;;;33.28;19.52;;;;;;;;;;5054577;28;20037;-79
2023/07/28 04:15:39;;;;;;;29.58;20.70;;;;;;;;;;5058308;28;20059;-79
2023/07/28 04:18:05;;;;;;;36.00;21.23;;;;;;;;;;5058168;28;20051;-79
2023/07/28 04:20:31;;;;;;;31.83;20.30;;;;;;;;;;5061604;28;20044;-78
2023/07/28 04:22:57;;;;;;;32.33;20.17;;;;;;;;;;5071498;28;20051;-79
2023/07/28 04:25:23;;;;;;;33.65;18.90;;;;;;;;;;5055095;28;20137;-79
2023/07/28 04:27:49;;;;;;;29.92;18.27;;;;;;;;;;5061989;28;20063;-79
2023/07/28 04:30:16;;;;;;;29.63;19.40;;;;;;;;;;5055530;28;20150;-79
2023/07/28 04:32:42;;;;;;;35.15;20.60;;;;;;;;;;5044275;28;20052;-79
2023/07/28 04:35:08;;;;;;;32.42;21.17;;;;;;;;;;5037461;28;20044;-79
2023/07/28 04:37:34;;;;;;;33.00;18.45;;;;;;;;;;5057269;28;20045;-78
2023/07/28 04:40:00;;;;;;;29.17;20.30;;;;;;;;;;5051308;28;20044;-78
2023/07/28 04:42:26;;;;;;;30.48;20.13;;;;;;;;;;5046752;28;20178;-78
2023/07/28 04:44:52;;;;;;;27.20;17.83;;;;;;;;;;5029403;28;20430;-79
2023/07/28 04:47:18;;;;;;;30.55;18.27;;;;;;;;;;5046609;28;20098;-79
2023/07/28 04:49:44;;;;;;;29.33;18.65;;;;;;;;;;5046125;28;20472;-78
2023/07/28 04:52:11;;;;;;;32.08;20.00;;;;;;;;;;5044543;28;20091;-78
2023/07/28 04:54:37;;;;;;;28.08;20.55;;;;;;;;;;5041992;28;20384;-78
2023/07/28 04:57:04;;;;;;;32.05;19.80;;;;;;;;;;5042378;28;20040;-78
2023/07/28 04:59:32;;;;;;;28.63;18.10;;;;;;;;;;5044150;28;20399;-78
2023/07/28 05:01:59;;;;;;;38.35;21.00;;;;;;;;;;5042036;28;20057;-78
2023/07/28 05:04:25;;;;;;;32.33;19.38;;;;;;;;;;5039091;28;20053;-79
2023/07/28 05:06:51;;;;;;;34.30;19.23;;;;;;;;;;5041351;28;20052;-78
2023/07/28 05:09:17;;;;;;;23.27;17.38;;;;;;;;;;5039272;28;20072;-79
2023/07/28 05:11:43;;;;;;;24.42;18.88;;;;;;;;;;5044653;28;20048;-79
2023/07/28 05:14:09;;;;;;;31.02;19.92;;;;;;;;;;5040452;28;20052;-79
2023/07/28 05:16:36;;;;;;;28.80;18.75;;;;;;;;;;5042169;28;20394;-78
2023/07/28 05:19:02;;;;;;;32.13;20.30;;;;;;;;;;5044862;28;20492;-79
2023/07/28 05:21:28;;;;;;;29.77;20.05;;;;;;;;;;5042435;28;20048;-79
2023/07/28 05:23:54;;;;;;;32.22;19.40;;;;;;;;;;5021386;28;20088;-78
2023/07/28 05:26:20;;;;;;;29.88;18.35;;;;;;;;;;5041599;28;20105;-79
2023/07/28 05:28:46;;;;;;;27.15;19.00;;;;;;;;;;5040634;28;20087;-79
2023/07/28 05:31:15;;;;;;;25.63;17.92;;;;;;;;;;5042538;28;20048;-78
2023/07/28 05:33:41;;;;;;;35.00;19.23;;;;;;;;;;5047676;28;20110;-79
2023/07/28 05:36:07;;;;;;;30.73;18.75;;;;;;;;;;5043540;28;20056;-79
2023/07/28 05:38:34;;;;;;;30.00;18.38;;;;;;;;;;5044650;28;20139;-78
2023/07/28 05:41:00;;;;;;;23.55;17.20;;;;;;;;;;5052864;28;20399;-79
2023/07/28 05:43:27;;;;;;;26.45;16.88;;;;;;;;;;5051788;28;20044;-79
2023/07/28 05:45:53;;;;;;;25.40;17.13;;;;;;;;;;5048379;28;20103;-78
2023/07/28 05:48:19;;;;;;;31.58;17.88;;;;;;;;;;5050573;28;20052;-79
2023/07/28 05:50:45;;;;;;;25.17;17.90;;;;;;;;;;5046811;28;20041;-78
2023/07/28 05:53:12;;;;;;;24.95;17.00;;;;;;;;;;5043175;28;20050;-78
2023/07/28 05:55:38;;;;;;;21.15;15.60;;;;;;;;;;5040424;28;20530;-78
2023/07/28 05:58:04;;;;;;;25.52;16.85;;;;;;;;;;5044885;28;20037;-78
2023/07/28 06:00:30;;;;;;;23.70;16.35;;;;;;;;;;5041681;28;20048;-78
2023/07/28 06:02:56;;;;;;;23.35;16.52;;;;;;;;;;5041988;28;20044;-79
2023/07/28 06:05:22;;;;;;;21.60;15.30;;;;;;;;;;5046188;28;20114;-78
2023/07/28 06:07:48;;;;;;;31.20;16.73;;;;;;;;;;5045559;28;20412;-79
2023/07/28 06:10:14;;;;;;;27.73;16.95;;;;;;;;;;5050575;28;20056;-79
2023/07/28 06:12:40;;;;;;;25.88;16.30;;;;;;;;;;5046351;28;20144;-78
2023/07/28 06:15:07;;;;;;;24.50;16.95;;;;;;;;;;5029988;28;20059;-78
2023/07/28 06:17:33;;;;;;;22.08;15.95;;;;;;;;;;5044115;28;20072;-79
2023/07/28 06:19:59;;;;;;;23.42;16.00;;;;;;;;;;5047984;28;20047;-78
2023/07/28 06:22:25;;;;;;;22.77;16.27;;;;;;;;;;5047249;28;20483;-78
2023/07/28 06:24:51;;;;;;;25.98;17.30;;;;;;;;;;5031491;28;20102;-78
2023/07/28 06:27:19;;;;;;;25.55;16.38;;;;;;;;;;5044086;28;20087;-79
2023/07/28 06:29:45;;;;;;;23.42;16.25;;;;;;;;;;5045258;28;20037;-78
2023/07/28 06:32:11;;;;;;;25.63;17.08;;;;;;;;;;5048827;28;20041;-78
2023/07/28 06:34:37;;;;;;;26.00;17.83;;;;;;;;;;5044541;28;20045;-78
2023/07/28 06:37:03;;;;;;;27.92;17.73;;;;;;;;;;5044501;28;20130;-78
2023/07/28 06:39:30;;;;;;;22.70;16.08;;;;;;;;;;5042840;28;20049;-78
2023/07/28 06:41:56;;;;;;;24.27;16.38;;;;;;;;;;5042660;28;20149;-78
2023/07/28 06:44:22;;;;;;;27.08;16.33;;;;;;;;;;5041199;28;20051;-78
2023/07/28 06:46:48;;;;;;;24.25;15.75;;;;;;;;;;5043780;28;20052;-78
2023/07/28 06:49:14;;;;;;;22.48;15.75;;;;;;;;;;5041899;28;20382;-78
2023/07/28 06:51:40;;;;;;;25.17;15.73;;;;;;;;;;5049097;28;20133;-78
2023/07/28 06:54:11;;;;;;;22.55;15.43;;;;;;;;;;5053662;28;20106;-78
2023/07/28 06:56:37;;;;;;;23.38;14.88;;;;;;;;;;5053336;28;20076;-78
2023/07/28 06:59:03;;;;;;;25.98;15.90;;;;;;;;;;5055803;28;20052;-78
2023/07/28 07:01:29;;;;;;;23.67;13.98;;;;;;;;;;5043237;28;20122;-78
2023/07/28 07:03:55;;;;;;;24.30;15.35;;;;;;;;;;5052221;28;20554;-79
2023/07/28 07:06:21;;;;;;;21.45;14.63;;;;;;;;;;5058181;28;20052;-79
2023/07/28 07:08:48;;;;;;;23.17;13.25;;;;;;;;;;5056961;28;20053;-79
2023/07/28 07:11:14;;;;;;;21.10;13.02;;;;;;;;;;5070529;28;20075;-80
2023/07/28 07:13:40;;;;;;;18.00;11.95;;;;;;;;;;5053208;28;20136;-79
2023/07/28 07:16:13;;;;;;;17.75;10.98;;;;;;;;;;5052448;28;20102;-79
2023/07/28 07:18:39;;;;;;;18.83;11.27;;;;;;;;;;5059486;28;20045;-79
2023/07/28 07:21:06;;;;;;;18.20;10.75;;;;;;;;;;5042984;28;20049;-78
2023/07/28 07:23:32;;;;;;;19.85;12.15;;;;;;;;;;5055382;28;20057;-76
2023/07/28 07:25:58;;;;;;;19.40;11.40;;;;;;;;;;5053499;28;20041;-76
2023/07/28 07:28:24;;;;;;;15.77;10.20;;;;;;;;;;5055907;28;20546;-77
2023/07/28 07:30:50;;;;;;;17.08;10.18;;;;;;;;;;5059261;28;20158;-76
2023/07/28 07:33:16;;;;;;;20.65;10.10;;;;;;;;;;5051294;28;20045;-75
2023/07/28 07:35:42;;;;;;;13.40;8.73;;;;;;;;;;5047522;28;20418;-77
2023/07/28 07:38:09;;;;;;;17.52;8.57;;;;;;;;;;5060512;28;20071;-77
2023/07/28 07:40:36;;;;;;;13.85;7.93;;;;;;;;;;5049922;28;20514;-76
2023/07/28 07:43:03;;;;;;;16.23;8.43;;;;;;;;;;5058655;28;20109;-77
2023/07/28 07:45:29;;;;;;;13.32;6.65;;;;;;;;;;5052967;28;20507;-77
2023/07/28 07:47:55;;;;;;;12.45;5.97;;;;;;;;;;5059014;28;20052;-76
2023/07/28 07:50:21;;;;;;;12.77;6.85;;;;;;;;;;5061864;28;20441;-78
2023/07/28 07:52:47;;;;;;;10.63;5.80;;;;;;;;;;5054242;28;20525;-77
2023/07/28 07:55:14;;;;;;;10.88;4.97;;;;;;;;;;5053277;28;20041;-77
2023/07/28 07:57:43;;;;;;;10.00;4.50;;;;;;;;;;5054224;28;20056;-76
2023/07/28 08:00:10;;;;;;;11.48;4.63;;;;;;;;;;5054524;28;20053;-77
2023/07/28 08:02:36;;;;;;;11.07;4.78;;;;;;;;;;5051645;28;20056;-77
2023/07/28 08:05:03;;;;;;;9.50;4.05;;;;;;;;;;5053415;28;20033;-78
2023/07/28 08:07:29;;;;;;;9.30;4.40;;;;;;;;;;5051192;28;20052;-77
2023/07/28 08:09:55;;;;;;;7.93;4.63;;;;;;;;;;5037523;28;20040;-76
2023/07/28 08:12:21;;;;;;;9.27;5.00;;;;;;;;;;5046766;28;20120;-77
2023/07/28 08:14:47;;;;;;;8.32;4.20;;;;;;;;;;5029864;28;20076;-77
2023/07/28 08:17:13;;;;;;;7.93;3.97;;;;;;;;;;5052934;28;20044;-77
2023/07/28 08:19:40;;;;;;;10.90;4.60;;;;;;;;;;5053796;28;20056;-76
2023/07/28 08:22:06;;;;;;;8.07;4.15;;;;;;;;;;5052313;28;20107;-78
2023/07/28 08:24:33;;;;;;;9.23;4.05;;;;;;;;;;5052911;28;20091;-77
2023/07/28 08:26:59;;;;;;;7.28;4.20;;;;;;;;;;5053735;28;20037;-77
2023/07/28 08:29:25;;;;;;;8.60;4.32;;;;;;;;;;5035687;28;20045;-77
2023/07/28 08:31:51;;;;;;;7.93;4.25;;;;;;;;;;5051292;28;20049;-77
2023/07/28 08:34:17;;;;;;;9.35;4.63;;;;;;;;;;5053426;28;20518;-77
2023/07/28 08:36:44;;;;;;;9.27;4.57;;;;;;;;;;5053303;28;20091;-76
2023/07/28 08:39:10;;;;;;;12.57;4.60;;;;;;;;;;5052837;28;20045;-77
2023/07/28 08:41:36;;;;;;;11.02;4.80;;;;;;;;;;5032619;28;20061;-76
2023/07/28 08:44:03;;;;;;;9.50;4.72;;;;;;;;;;5052513;28;20483;-77
2023/07/28 08:46:30;;;;;;;9.48;4.60;;;;;;;;;;5053317;28;20068;-76
2023/07/28 08:48:56;;;;;;;9.27;4.07;;;;;;;;;;5034867;28;20102;-76
2023/07/28 08:51:26;;;;;;;9.05;4.53;;;;;;;;;;5051380;28;20052;-78
2023/07/28 08:53:52;;;;;;;11.55;4.93;;;;;;;;;;5052477;28;20440;-78
2023/07/28 08:56:19;;;;;;;11.63;5.03;;;;;;;;;;5052601;28;20140;-76
2023/07/28 08:58:45;;;;;;;10.38;4.90;;;;;;;;;;5052430;28;20045;-76
2023/07/28 09:01:11;;;;;;;11.32;4.82;;;;;;;;;;5033598;28;20032;-76
2023/07/28 09:03:41;;;;;;;11.45;5.13;;;;;;;;;;5052123;28;20053;-77
2023/07/28 09:06:10;;;;;;;9.85;4.93;;;;;;;;;;5053011;28;20060;-78
2023/07/28 09:08:37;;;;;;;11.02;4.78;;;;;;;;;;5050611;28;20497;-77
2023/07/28 09:11:04;;;;;;;11.68;5.10;;;;;;;;;;5050836;28;20033;-76
2023/07/28 09:13:36;;;;;;;15.00;5.80;;;;;;;;;;5052255;28;20091;-78
2023/07/28 09:16:02;;;;;;;9.40;5.20;;;;;;;;;;5033794;28;20430;-76
2023/07/28 09:18:29;;;;;;;11.73;4.35;;;;;;;;;;5052310;28;20036;-78
2023/07/28 09:20:55;;;;;;;9.60;4.45;;;;;;;;;;5034308;28;20119;-78
2023/07/28 09:23:28;;;;;;;13.95;5.15;;;;;;;;;;5056066;28;20052;-79
2023/07/28 09:25:59;;;;;;;9.88;3.97;;;;;;;;;;5046415;28;20494;-79
2023/07/28 09:28:37;;;;;;;14.18;4.18;;;;;;;;;;5061330;28;20045;-79
2023/07/28 09:31:04;;;;;;;6.65;3.47;;;;;;;;;;5058668;28;20071;-79
2023/07/28 09:33:31;;;;;;;10.02;3.50;;;;;;;;;;5036272;28;20048;-80
2023/07/28 09:35:57;;;;;;;8.02;3.33;;;;;;;;;;5061515;28;20093;-79
2023/07/28 09:38:25;;;;;;;10.77;3.90;;;;;;;;;;5062160;28;20083;-79
2023/07/28 09:40:51;;;;;;;9.73;3.90;;;;;;;;;;5065132;28;20099;-79
2023/07/28 09:43:17;;;;;;;7.43;3.80;;;;;;;;;;5047488;28;20045;-80
2023/07/28 09:45:43;;;;;;;8.70;3.90;;;;;;;;;;5065789;28;20064;-81
2023/07/28 09:48:10;;;;;;;8.68;4.25;;;;;;;;;;5065877;28;20045;-79
2023/07/28 09:50:37;;;;;;;7.85;3.80;;;;;;;;;;5053034;28;20045;-79
2023/07/28 09:53:04;;;;;;;7.07;3.85;;;;;;;;;;5065136;28;20144;-80
2023/07/28 09:55:30;;;;;;;11.02;4.07;;;;;;;;;;5047339;28;20045;-80
2023/07/28 09:57:59;;;;;;;8.90;3.47;;;;;;;;;;5064808;28;20041;-78
2023/07/28 10:00:25;;;;;;;6.78;2.88;;;;;;;;;;5065027;28;20431;-80
2023/07/28 10:02:53;;;;;;;6.22;3.03;;;;;;;;;;5065125;28;20041;-80
2023/07/28 10:05:19;;;;;;;11.50;3.33;;;;;;;;;;5066080;28;20080;-79
2023/07/28 10:07:45;;;;;;;9.43;3.30;;;;;;;;;;5048049;28;20053;-79
2023/07/28 10:10:12;;;;;;;7.45;3.30;;;;;;;;;;5064462;28;20084;-80
2023/07/28 10:12:43;;;;;;;8.45;3.30;;;;;;;;;;5064811;28;20045;-79
2023/07/28 10:15:12;;;;;;;5.50;2.33;;;;;;;;;;5065195;28;20041;-79
2023/07/28 10:17:39;;;;;;;5.95;2.30;;;;;;;;;;5066436;28;20280;-80
2023/07/28 10:20:09;;;;;;;7.93;2.97;;;;;;;;;;5045301;28;20044;-81
2023/07/28 10:22:44;;;;;;;7.95;2.80;;;;;;;;;;5065413;28;20071;-81
2023/07/28 10:25:11;;;;;;;6.38;2.63;;;;;;;;;;5065207;28;20048;-79
2023/07/28 10:27:38;;;;;;;5.97;2.60;;;;;;;;;;5046812;28;20051;-78
2023/07/28 10:30:06;;;;;;;7.50;2.90;;;;;;;;;;5061536;28;20460;-78
2023/07/28 10:32:39;;;;;;;6.57;2.60;;;;;;;;;;5047003;28;20045;-79
2023/07/28 10:35:10;;;;;;;7.20;3.08;;;;;;;;;;5063834;28;20091;-79
2023/07/28 10:37:36;;;;;;;5.22;2.50;;;;;;;;;;5065612;28;20067;-79
2023/07/28 10:40:26;;;;;;;5.55;2.67;;;;;;;;;;5065976;28;20041;-79
2023/07/28 10:42:52;;;;;;;9.25;3.00;;;;;;;;;;5055509;28;20081;-79
2023/07/28 10:45:19;;;;;;;8.07;2.88;;;;;;;;;;5052371;28;20181;-69
2023/07/28 10:47:45;;;;;;;9.10;2.70;;;;;;;;;;5052314;28;20447;-70
2023/07/28 10:50:12;;;;;;;5.57;2.80;;;;;;;;;;5051260;28;20041;-70
2023/07/28 10:52:45;;;;;;;8.18;2.78;;;;;;;;;;5052417;28;20041;-70
2023/07/28 10:55:15;;;;;;;5.47;2.40;;;;;;;;;;5051111;28;20124;-70
2023/07/28 10:57:42;;;;;;;6.22;2.70;;;;;;;;;;5049405;28;20048;-70
2023/07/28 11:00:08;;;;;;;6.47;2.50;;;;;;;;;;5049155;28;20055;-70
2023/07/28 11:02:37;;;;;;;7.68;2.17;;;;;;;;;;5035744;28;20147;-70
2023/07/28 11:05:11;;;;;;;6.03;2.35;;;;;;;;;;5024141;28;20041;-70
2023/07/28 11:07:37;;;;;;;7.72;2.85;;;;;;;;;;5052422;28;20099;-70
2023/07/28 11:10:06;;;;;;;5.38;2.40;;;;;;;;;;5054407;28;20471;-70
2023/07/28 11:12:32;;;;;;;6.30;2.67;;;;;;;;;;5054731;28;20495;-70
2023/07/28 11:14:58;;;;;;;6.20;2.63;;;;;;;;;;5048054;28;20398;-70
2023/07/28 11:17:26;;;;;;;8.35;2.83;;;;;;;;;;5049357;28;20118;-70
2023/07/28 11:19:52;;;;;;;5.63;2.63;;;;;;;;;;5049144;28;20134;-69
2023/07/28 11:22:18;;;;;;;5.88;2.30;;;;;;;;;;5047220;28;20049;-68
2023/07/28 11:24:45;;;;;;;6.78;2.22;;;;;;;;;;5051187;28;20048;-70
2023/07/28 11:27:11;;;;;;;4.65;1.70;;;;;;;;;;5053974;28;20079;-69
2023/07/28 11:29:37;;;;;;;4.47;2.10;;;;;;;;;;5051861;28;20037;-67
2023/07/28 11:32:03;;;;;;;5.82;2.22;;;;;;;;;;5047390;28;20050;-68
2023/07/28 11:34:34;;;;;;;4.78;2.00;;;;;;;;;;5047656;28;20513;-69
2023/07/28 11:37:02;;;;;;;5.43;2.10;;;;;;;;;;5042860;28;20079;-71
2023/07/28 11:39:28;;;;;;;6.18;2.40;;;;;;;;;;5051774;28;20056;-70
2023/07/28 11:41:55;;;;;;;6.47;2.65;;;;;;;;;;5045572;28;20090;-71
2023/07/28 11:44:21;;;;;;;5.28;2.85;;;;;;;;;;5047256;28;20109;-72
2023/07/28 11:46:49;;;;;;;5.75;2.85;;;;;;;;;;5047047;28;20041;-71
2023/07/28 11:49:24;;;;;;;7.35;3.10;;;;;;;;;;5050625;28;20049;-71
2023/07/28 11:51:52;;;;;;;7.43;3.78;;;;;;;;;;5053654;28;20040;-70
2023/07/28 11:54:21;;;;;;;8.00;4.45;;;;;;;;;;5044247;28;20045;-70
2023/07/28 11:56:48;;;;;;;8.90;4.70;;;;;;;;;;5048685;28;20045;-71
2023/07/28 11:59:19;;;;;;;9.05;4.28;;;;;;;;;;5052313;28;20151;-71
2023/07/28 12:01:59;;;;;;;8.80;4.75;;;;;;;;;;5052717;28;20056;-70
2023/07/28 12:04:29;;;;;;;9.60;4.68;;;;;;;;;;5043516;28;20053;-70
2023/07/28 12:07:16;;;;;;;9.85;4.85;;;;;;;;;;5033646;28;20393;-70
2023/07/28 12:10:00;;;;;;;7.85;4.30;;;;;;;;;;5050717;28;20060;-70
2023/07/28 12:12:29;;;;;;;8.00;4.32;;;;;;;;;;5053751;28;20045;-70
2023/07/28 12:14:58;;;;;;;7.38;4.18;;;;;;;;;;5050072;28;20136;-71
2023/07/28 12:17:27;;;;;;;11.40;4.60;;;;;;;;;;5053481;28;20053;-71
2023/07/28 12:19:56;;;;;;;8.25;4.65;;;;;;;;;;5052028;28;20048;-71
2023/07/28 12:22:22;;;;;;;8.95;4.68;;;;;;;;;;5051850;28;20075;-71
2023/07/28 12:24:48;;;;;;;8.98;4.90;;;;;;;;;;5053190;28;20053;-70
2023/07/28 12:27:15;;;;;;;7.78;5.28;;;;;;;;;;5052320;28;20055;-70
2023/07/28 12:29:42;;;;;;;10.20;5.63;;;;;;;;;;5052991;28;20152;-71
2023/07/28 12:32:08;;;;;;;10.63;5.55;;;;;;;;;;5050424;28;20041;-68
2023/07/28 12:34:34;;;;;;;8.98;5.70;;;;;;;;;;5046941;28;20033;-69
2023/07/28 12:37:00;;;;;;;12.70;7.70;;;;;;;;;;5050158;28;20041;-72
2023/07/28 12:39:26;;;;;;;12.32;6.68;;;;;;;;;;5051211;28;20521;-71
2023/07/28 12:41:52;;;;;;;11.02;6.60;;;;;;;;;;5048594;28;20375;-70
2023/07/28 12:44:21;;;;;;;7.07;4.40;;;;;;;;;;5047350;28;20046;-71
2023/07/28 12:46:47;;;;;;;8.05;4.03;;;;;;;;;;5050653;28;20060;-72
2023/07/28 12:49:14;;;;;;;6.45;3.95;;;;;;;;;;5031347;28;20044;-69
2023/07/28 12:51:41;;;;;;;8.27;3.95;;;;;;;;;;5049783;28;20060;-69
2023/07/28 12:54:07;;;;;;;7.55;3.78;;;;;;;;;;5046862;28;20040;-69
2023/07/28 12:56:33;;;;;;;7.35;4.43;;;;;;;;;;5045328;28;20617;-70
2023/07/28 12:58:59;;;;;;;7.47;4.40;;;;;;;;;;5049441;28;20049;-69
2023/07/28 13:01:25;;;;;;;7.53;4.75;;;;;;;;;;5046862;28;20045;-69
2023/07/28 13:03:53;;;;;;;8.32;5.20;;;;;;;;;;5045074;28;20044;-69
2023/07/28 13:06:19;;;;;;;8.07;4.78;;;;;;;;;;5051122;28;20126;-69
2023/07/28 13:08:46;;;;;;;8.25;5.35;;;;;;;;;;5050432;28;20120;-69
2023/07/28 13:11:14;;;;;;;9.68;6.15;;;;;;;;;;5048660;28;20055;-70
2023/07/28 13:13:40;;;;;;;9.10;6.40;;;;;;;;;;5041104;28;20061;-69
2023/07/28 13:16:06;;;;;;;8.57;5.35;;;;;;;;;;5034377;28;20067;-70
2023/07/28 13:18:32;;;;;;;9.75;5.43;;;;;;;;;;5043185;28;20057;-71
2023/07/28 13:20:59;;;;;;;9.57;5.38;;;;;;;;;;5048961;28;20475;-68
2023/07/28 13:23:25;;;;;;;9.63;6.03;;;;;;;;;;5047641;28;20036;-70
2023/07/28 13:25:51;;;;;;;10.65;6.03;;;;;;;;;;5049921;28;20479;-68
2023/07/28 13:28:18;;;;;;;7.80;5.45;;;;;;;;;;5048717;28;20041;-70
2023/07/28 13:30:44;;;;;;;8.25;4.40;;;;;;;;;;5049899;28;20049;-69
2023/07/28 13:33:11;;;;;;;8.65;4.40;;;;;;;;;;5046410;28;20045;-69
2023/07/28 13:35:37;;;;;;;7.57;4.45;;;;;;;;;;5049840;28;20499;-68
2023/07/28 13:38:03;;;;;;;8.55;4.30;;;;;;;;;;5040934;28;20052;-68
2023/07/28 13:40:29;;;;;;;7.50;4.47;;;;;;;;;;5047143;28;20139;-68
2023/07/28 13:42:55;;;;;;;7.97;4.78;;;;;;;;;;5049803;28;20072;-69
2023/07/28 13:45:21;;;;;;;8.25;4.88;;;;;;;;;;5051776;28;20464;-69
2023/07/28 13:47:47;;;;;;;7.68;4.63;;;;;;;;;;5052159;28;20056;-69
2023/07/28 13:50:13;;;;;;;8.55;4.68;;;;;;;;;;5051101;28;20542;-68
2023/07/28 13:52:40;;;;;;;9.57;4.65;;;;;;;;;;5052716;28;20045;-69
2023/07/28 13:55:06;;;;;;;10.57;4.60;;;;;;;;;;5052444;28;20348;-69
2023/07/28 13:57:32;;;;;;;8.15;4.18;;;;;;;;;;5052560;28;20508;-69
2023/07/28 13:59:59;;;;;;;7.07;3.83;;;;;;;;;;5042210;28;20417;-69
2023/07/28 14:02:25;;;;;;;7.47;3.95;;;;;;;;;;5052206;28;20045;-69
2023/07/28 14:04:51;;;;;;;6.95;3.95;;;;;;;;;;5052315;28;20052;-69
2023/07/28 14:07:17;;;;;;;6.40;3.50;;;;;;;;;;5050506;28;20037;-67
2023/07/28 14:09:43;;;;;;;7.30;4.10;;;;;;;;;;5051084;28;20052;-69
2023/07/28 14:12:09;;;;;;;6.90;3.72;;;;;;;;;;5052136;28;20049;-68
2023/07/28 14:14:36;;;;;;;8.90;4.60;;;;;;;;;;5051772;28;20044;-68
2023/07/28 14:17:02;;;;;;;7.15;3.83;;;;;;;;;;5050873;28;20060;-68
2023/07/28 14:19:28;;;;;;;6.22;3.20;;;;;;;;;;5051122;28;20106;-68
2023/07/28 14:21:54;;;;;;;6.88;3.00;;;;;;;;;;5050879;28;20041;-68
2023/07/28 14:24:20;;;;;;;5.65;2.90;;;;;;;;;;5052378;28;20044;-68
2023/07/28 14:26:46;;;;;;;4.95;2.80;;;;;;;;;;5051628;28;20045;-68